CSH9 weather

Montréal East (Aim) Heliport
Montréal, Quebec, Canada

Public forecast

Using degrees Celsius for public forecast. Weather courtesy of forecast.io.

METAR (pilot weather report)

Closest report is Montréal / Saint-Hubert Airport, 9.3 nm (17.3 km) SE. Retrieved 2019/07/22 19:00 UTC (44 minutes ago):

CYHU 221900Z AUTO 07004KT 320V120 9SM FEW200 22/12 A2989 RMK SLP125 DENSITY ALT 900FT

TAF (pilot weather forecast)

Closest forecast is Montréal / Saint-Hubert Airport, 9.3 nm (17.3 km) SE. Retrieved 2019/07/22 18:42 UTC (1 hour ago):

TAF TAF CYHU 221738Z 2218/2318 VRB03KT P6SM SCT080 BKN220 TEMPO 2218/2305 BKN080 BKN160 FM231000 25005KT P6SM FEW080 BECMG 2316/2318 26012KT RMK FCST BASED ON AUTO OBS. NXT FCST BY 230000Z